sensor_id;sensor_type;location;lat;lon;timestamp;pressure;altitude;pressure_sealevel;temperature
22322;BMP180;11328;53.928;18.522;2023-06-24T00:00:39;100599.00;;;18.90
22322;BMP180;11328;53.928;18.522;2023-06-24T00:03:07;100594.00;;;18.90
22322;BMP180;11328;53.928;18.522;2023-06-24T00:05:35;100593.00;;;18.90
22322;BMP180;11328;53.928;18.522;2023-06-24T00:08:02;100601.00;;;18.80
22322;BMP180;11328;53.928;18.522;2023-06-24T00:10:30;100598.00;;;18.80
22322;BMP180;11328;53.928;18.522;2023-06-24T00:12:58;100604.00;;;18.80
22322;BMP180;11328;53.928;18.522;2023-06-24T00:15:28;100594.00;;;18.80
22322;BMP180;11328;53.928;18.522;2023-06-24T00:17:55;100613.00;;;18.80
22322;BMP180;11328;53.928;18.522;2023-06-24T00:20:32;100602.00;;;18.80
22322;BMP180;11328;53.928;18.522;2023-06-24T00:23:00;100605.00;;;18.70
22322;BMP180;11328;53.928;18.522;2023-06-24T00:25:28;100606.00;;;18.70
22322;BMP180;11328;53.928;18.522;2023-06-24T00:27:55;100588.00;;;18.70
22322;BMP180;11328;53.928;18.522;2023-06-24T00:30:22;100595.00;;;18.60
22322;BMP180;11328;53.928;18.522;2023-06-24T00:32:50;100611.00;;;18.60
22322;BMP180;11328;53.928;18.522;2023-06-24T00:35:17;100613.00;;;18.60
22322;BMP180;11328;53.928;18.522;2023-06-24T00:37:45;100609.00;;;18.60
22322;BMP180;11328;53.928;18.522;2023-06-24T00:40:14;100593.00;;;18.60
22322;BMP180;11328;53.928;18.522;2023-06-24T00:42:45;100608.00;;;18.60
22322;BMP180;11328;53.928;18.522;2023-06-24T00:45:13;100604.00;;;18.60
22322;BMP180;11328;53.928;18.522;2023-06-24T00:47:42;100601.00;;;18.50
22322;BMP180;11328;53.928;18.522;2023-06-24T00:50:10;100612.00;;;18.50
22322;BMP180;11328;53.928;18.522;2023-06-24T00:52:39;100605.00;;;18.50
22322;BMP180;11328;53.928;18.522;2023-06-24T00:55:15;100607.00;;;18.50
22322;BMP180;11328;53.928;18.522;2023-06-24T00:57:45;100588.00;;;18.50
22322;BMP180;11328;53.928;18.522;2023-06-24T01:00:19;100595.00;;;18.40
22322;BMP180;11328;53.928;18.522;2023-06-24T01:02:48;100597.00;;;18.40
22322;BMP180;11328;53.928;18.522;2023-06-24T01:05:16;100599.00;;;18.30
22322;BMP180;11328;53.928;18.522;2023-06-24T01:07:47;100595.00;;;18.40
22322;BMP180;11328;53.928;18.522;2023-06-24T01:10:23;100597.00;;;18.40
22322;BMP180;11328;53.928;18.522;2023-06-24T01:12:50;100579.00;;;18.40
22322;BMP180;11328;53.928;18.522;2023-06-24T01:15:19;100591.00;;;18.30
22322;BMP180;11328;53.928;18.522;2023-06-24T01:18:04;100592.00;;;18.40
22322;BMP180;11328;53.928;18.522;2023-06-24T01:20:42;100593.00;;;18.40
22322;BMP180;11328;53.928;18.522;2023-06-24T01:26:58;100590.00;;;18.30
22322;BMP180;11328;53.928;18.522;2023-06-24T01:29:51;100598.00;;;18.30
22322;BMP180;11328;53.928;18.522;2023-06-24T01:32:37;100580.00;;;18.40
22322;BMP180;11328;53.928;18.522;2023-06-24T01:35:16;100596.00;;;18.30
22322;BMP180;11328;53.928;18.522;2023-06-24T01:37:52;100593.00;;;18.30
22322;BMP180;11328;53.928;18.522;2023-06-24T01:40:33;100597.00;;;18.30
22322;BMP180;11328;53.928;18.522;2023-06-24T01:43:03;100600.00;;;18.30
22322;BMP180;11328;53.928;18.522;2023-06-24T01:45:50;100589.00;;;18.30
22322;BMP180;11328;53.928;18.522;2023-06-24T01:48:27;100601.00;;;18.30
22322;BMP180;11328;53.928;18.522;2023-06-24T01:51:12;100600.00;;;18.30
22322;BMP180;11328;53.928;18.522;2023-06-24T01:53:49;100601.00;;;18.30
22322;BMP180;11328;53.928;18.522;2023-06-24T01:56:20;100602.00;;;18.30
22322;BMP180;11328;53.928;18.522;2023-06-24T01:58:52;100605.00;;;18.30
22322;BMP180;11328;53.928;18.522;2023-06-24T02:01:21;100617.00;;;18.30
22322;BMP180;11328;53.928;18.522;2023-06-24T02:03:50;100613.00;;;18.40
22322;BMP180;11328;53.928;18.522;2023-06-24T02:06:20;100603.00;;;18.30
22322;BMP180;11328;53.928;18.522;2023-06-24T02:08:51;100607.00;;;18.30
22322;BMP180;11328;53.928;18.522;2023-06-24T02:11:22;100593.00;;;18.40
22322;BMP180;11328;53.928;18.522;2023-06-24T02:13:53;100614.00;;;18.40
22322;BMP180;11328;53.928;18.522;2023-06-24T02:16:22;100611.00;;;18.40
22322;BMP180;11328;53.928;18.522;2023-06-24T02:18:51;100610.00;;;18.30
22322;BMP180;11328;53.928;18.522;2023-06-24T02:21:19;100616.00;;;18.40
22322;BMP180;11328;53.928;18.522;2023-06-24T02:23:48;100620.00;;;18.40
22322;BMP180;11328;53.928;18.522;2023-06-24T02:26:17;100617.00;;;18.40
22322;BMP180;11328;53.928;18.522;2023-06-24T02:28:45;100618.00;;;18.50
22322;BMP180;11328;53.928;18.522;2023-06-24T02:31:14;100616.00;;;18.50
22322;BMP180;11328;53.928;18.522;2023-06-24T02:33:42;100623.00;;;18.40
22322;BMP180;11328;53.928;18.522;2023-06-24T02:36:09;100602.00;;;18.40
22322;BMP180;11328;53.928;18.522;2023-06-24T02:38:38;100623.00;;;18.40
22322;BMP180;11328;53.928;18.522;2023-06-24T02:41:05;100552.00;;;18.50
22322;BMP180;11328;53.928;18.522;2023-06-24T02:43:33;100632.00;;;18.50
22322;BMP180;11328;53.928;18.522;2023-06-24T02:46:05;100645.00;;;18.50
22322;BMP180;11328;53.928;18.522;2023-06-24T02:48:34;100638.00;;;18.40
22322;BMP180;11328;53.928;18.522;2023-06-24T02:51:06;100640.00;;;18.50
22322;BMP180;11328;53.928;18.522;2023-06-24T02:53:35;100618.00;;;18.40
22322;BMP180;11328;53.928;18.522;2023-06-24T02:56:04;100638.00;;;18.50
22322;BMP180;11328;53.928;18.522;2023-06-24T02:58:32;100639.00;;;18.40
22322;BMP180;11328;53.928;18.522;2023-06-24T03:01:01;100643.00;;;18.50
22322;BMP180;11328;53.928;18.522;2023-06-24T03:03:31;100641.00;;;18.50
22322;BMP180;11328;53.928;18.522;2023-06-24T03:05:59;100640.00;;;18.50
22322;BMP180;11328;53.928;18.522;2023-06-24T03:08:29;100652.00;;;18.50
22322;BMP180;11328;53.928;18.522;2023-06-24T03:10:57;100654.00;;;18.50
22322;BMP180;11328;53.928;18.522;2023-06-24T03:13:26;100658.00;;;18.40
22322;BMP180;11328;53.928;18.522;2023-06-24T03:15:53;100661.00;;;18.50
22322;BMP180;11328;53.928;18.522;2023-06-24T03:18:20;100658.00;;;18.50
22322;BMP180;11328;53.928;18.522;2023-06-24T03:20:47;100668.00;;;18.50
22322;BMP180;11328;53.928;18.522;2023-06-24T03:23:14;100669.00;;;18.40
22322;BMP180;11328;53.928;18.522;2023-06-24T03:25:41;100671.00;;;18.50
22322;BMP180;11328;53.928;18.522;2023-06-24T03:28:08;100665.00;;;18.50
22322;BMP180;11328;53.928;18.522;2023-06-24T03:30:35;100665.00;;;18.30
22322;BMP180;11328;53.928;18.522;2023-06-24T03:33:03;100651.00;;;18.20
22322;BMP180;11328;53.928;18.522;2023-06-24T03:35:30;100659.00;;;18.20
22322;BMP180;11328;53.928;18.522;2023-06-24T03:38:00;100667.00;;;18.30
22322;BMP180;11328;53.928;18.522;2023-06-24T03:40:27;100671.00;;;18.40
22322;BMP180;11328;53.928;18.522;2023-06-24T03:42:54;100680.00;;;18.50
22322;BMP180;11328;53.928;18.522;2023-06-24T03:45:21;100671.00;;;18.40
22322;BMP180;11328;53.928;18.522;2023-06-24T03:47:48;100665.00;;;18.40
22322;BMP180;11328;53.928;18.522;2023-06-24T03:50:16;100674.00;;;18.50
22322;BMP180;11328;53.928;18.522;2023-06-24T03:52:43;100679.00;;;18.50
22322;BMP180;11328;53.928;18.522;2023-06-24T03:55:13;100676.00;;;18.50
22322;BMP180;11328;53.928;18.522;2023-06-24T03:57:41;100684.00;;;18.40
22322;BMP180;11328;53.928;18.522;2023-06-24T04:00:08;100689.00;;;18.40
22322;BMP180;11328;53.928;18.522;2023-06-24T04:02:44;100697.00;;;18.40
22322;BMP180;11328;53.928;18.522;2023-06-24T04:05:12;100685.00;;;18.30
22322;BMP180;11328;53.928;18.522;2023-06-24T04:07:40;100692.00;;;18.30
22322;BMP180;11328;53.928;18.522;2023-06-24T04:10:09;100696.00;;;18.30
22322;BMP180;11328;53.928;18.522;2023-06-24T04:12:36;100688.00;;;18.20
22322;BMP180;11328;53.928;18.522;2023-06-24T04:15:04;100681.00;;;18.20
22322;BMP180;11328;53.928;18.522;2023-06-24T04:17:32;100689.00;;;18.20
22322;BMP180;11328;53.928;18.522;2023-06-24T04:19:59;100690.00;;;18.10
22322;BMP180;11328;53.928;18.522;2023-06-24T04:22:27;100693.00;;;18.10
22322;BMP180;11328;53.928;18.522;2023-06-24T04:24:54;100691.00;;;18.20
22322;BMP180;11328;53.928;18.522;2023-06-24T04:27:21;100696.00;;;18.20
22322;BMP180;11328;53.928;18.522;2023-06-24T04:29:49;100703.00;;;18.30
22322;BMP180;11328;53.928;18.522;2023-06-24T04:32:16;100707.00;;;18.30
22322;BMP180;11328;53.928;18.522;2023-06-24T04:34:43;100712.00;;;18.40
22322;BMP180;11328;53.928;18.522;2023-06-24T04:37:10;100700.00;;;18.40
22322;BMP180;11328;53.928;18.522;2023-06-24T04:39:38;100701.00;;;18.30
22322;BMP180;11328;53.928;18.522;2023-06-24T04:42:05;100704.00;;;18.50
22322;BMP180;11328;53.928;18.522;2023-06-24T04:44:33;100707.00;;;18.60
22322;BMP180;11328;53.928;18.522;2023-06-24T04:47:00;100715.00;;;18.70
22322;BMP180;11328;53.928;18.522;2023-06-24T04:49:27;100717.00;;;18.60
22322;BMP180;11328;53.928;18.522;2023-06-24T04:51:55;100719.00;;;18.70
22322;BMP180;11328;53.928;18.522;2023-06-24T04:54:22;100714.00;;;18.80
22322;BMP180;11328;53.928;18.522;2023-06-24T04:56:49;100726.00;;;18.80
22322;BMP180;11328;53.928;18.522;2023-06-24T04:59:17;100719.00;;;18.80
22322;BMP180;11328;53.928;18.522;2023-06-24T05:01:44;100705.00;;;18.90
22322;BMP180;11328;53.928;18.522;2023-06-24T05:04:12;100718.00;;;19.00
22322;BMP180;11328;53.928;18.522;2023-06-24T05:06:39;100729.00;;;19.00
22322;BMP180;11328;53.928;18.522;2023-06-24T05:09:06;100727.00;;;19.00
22322;BMP180;11328;53.928;18.522;2023-06-24T05:11:33;100729.00;;;19.00
22322;BMP180;11328;53.928;18.522;2023-06-24T05:14:01;100719.00;;;19.10
22322;BMP180;11328;53.928;18.522;2023-06-24T05:16:28;100723.00;;;19.10
22322;BMP180;11328;53.928;18.522;2023-06-24T05:18:55;100718.00;;;19.20
22322;BMP180;11328;53.928;18.522;2023-06-24T05:21:22;100716.00;;;19.30
22322;BMP180;11328;53.928;18.522;2023-06-24T05:23:49;100721.00;;;19.40
22322;BMP180;11328;53.928;18.522;2023-06-24T05:26:16;100720.00;;;19.50
22322;BMP180;11328;53.928;18.522;2023-06-24T05:28:43;100723.00;;;19.60
22322;BMP180;11328;53.928;18.522;2023-06-24T05:31:11;100715.00;;;19.80
22322;BMP180;11328;53.928;18.522;2023-06-24T05:33:38;100700.00;;;20.00
22322;BMP180;11328;53.928;18.522;2023-06-24T05:36:05;100704.00;;;20.20
22322;BMP180;11328;53.928;18.522;2023-06-24T05:38:32;100696.00;;;20.40
22322;BMP180;11328;53.928;18.522;2023-06-24T05:40:59;100702.00;;;20.30
22322;BMP180;11328;53.928;18.522;2023-06-24T05:43:29;100713.00;;;20.40
22322;BMP180;11328;53.928;18.522;2023-06-24T05:45:56;100709.00;;;20.50
22322;BMP180;11328;53.928;18.522;2023-06-24T05:48:23;100702.00;;;20.40
22322;BMP180;11328;53.928;18.522;2023-06-24T05:50:50;100700.00;;;20.60
22322;BMP180;11328;53.928;18.522;2023-06-24T05:53:17;100705.00;;;20.60
22322;BMP180;11328;53.928;18.522;2023-06-24T05:55:44;100709.00;;;20.60
22322;BMP180;11328;53.928;18.522;2023-06-24T05:58:12;100575.00;;;20.70
22322;BMP180;11328;53.928;18.522;2023-06-24T06:00:39;100709.00;;;20.70
22322;BMP180;11328;53.928;18.522;2023-06-24T06:03:06;100672.00;;;20.60
22322;BMP180;11328;53.928;18.522;2023-06-24T06:05:34;100699.00;;;20.80
22322;BMP180;11328;53.928;18.522;2023-06-24T06:08:01;100702.00;;;21.00
22322;BMP180;11328;53.928;18.522;2023-06-24T06:10:29;100700.00;;;21.10
22322;BMP180;11328;53.928;18.522;2023-06-24T06:12:56;100701.00;;;21.30
22322;BMP180;11328;53.928;18.522;2023-06-24T06:15:23;100700.00;;;21.30
22322;BMP180;11328;53.928;18.522;2023-06-24T06:17:52;100710.00;;;21.30
22322;BMP180;11328;53.928;18.522;2023-06-24T06:20:19;100715.00;;;21.40
22322;BMP180;11328;53.928;18.522;2023-06-24T06:22:46;100716.00;;;21.30
22322;BMP180;11328;53.928;18.522;2023-06-24T06:25:13;100707.00;;;21.50
22322;BMP180;11328;53.928;18.522;2023-06-24T06:27:40;100717.00;;;21.70
22322;BMP180;11328;53.928;18.522;2023-06-24T06:30:08;100701.00;;;21.90
22322;BMP180;11328;53.928;18.522;2023-06-24T06:32:35;100710.00;;;22.20
22322;BMP180;11328;53.928;18.522;2023-06-24T06:35:03;100714.00;;;22.20
22322;BMP180;11328;53.928;18.522;2023-06-24T06:37:31;100715.00;;;22.10
22322;BMP180;11328;53.928;18.522;2023-06-24T06:39:58;100714.00;;;21.90
22322;BMP180;11328;53.928;18.522;2023-06-24T06:42:25;100713.00;;;21.90
22322;BMP180;11328;53.928;18.522;2023-06-24T06:44:52;100721.00;;;21.80
22322;BMP180;11328;53.928;18.522;2023-06-24T06:47:19;100714.00;;;22.00
22322;BMP180;11328;53.928;18.522;2023-06-24T06:49:47;100715.00;;;22.00
22322;BMP180;11328;53.928;18.522;2023-06-24T06:52:14;100674.00;;;22.00
22322;BMP180;11328;53.928;18.522;2023-06-24T06:54:43;100710.00;;;21.90
22322;BMP180;11328;53.928;18.522;2023-06-24T06:57:11;100714.00;;;22.10
22322;BMP180;11328;53.928;18.522;2023-06-24T06:59:38;100720.00;;;22.20
22322;BMP180;11328;53.928;18.522;2023-06-24T07:02:06;100727.00;;;22.30
22322;BMP180;11328;53.928;18.522;2023-06-24T07:04:33;100723.00;;;22.40
22322;BMP180;11328;53.928;18.522;2023-06-24T07:07:01;100727.00;;;22.50
22322;BMP180;11328;53.928;18.522;2023-06-24T07:09:28;100735.00;;;22.60
22322;BMP180;11328;53.928;18.522;2023-06-24T07:11:55;100731.00;;;22.70
22322;BMP180;11328;53.928;18.522;2023-06-24T07:14:22;100741.00;;;22.80
22322;BMP180;11328;53.928;18.522;2023-06-24T07:16:49;100724.00;;;22.70
22322;BMP180;11328;53.928;18.522;2023-06-24T07:19:17;100712.00;;;22.80
22322;BMP180;11328;53.928;18.522;2023-06-24T07:21:44;100728.00;;;22.90
22322;BMP180;11328;53.928;18.522;2023-06-24T07:24:11;100728.00;;;23.20
22322;BMP180;11328;53.928;18.522;2023-06-24T07:26:38;100720.00;;;23.20
22322;BMP180;11328;53.928;18.522;2023-06-24T07:29:07;100726.00;;;23.10
22322;BMP180;11328;53.928;18.522;2023-06-24T07:31:36;100735.00;;;23.30
22322;BMP180;11328;53.928;18.522;2023-06-24T07:34:04;100740.00;;;23.30
22322;BMP180;11328;53.928;18.522;2023-06-24T07:36:32;100734.00;;;23.40
22322;BMP180;11328;53.928;18.522;2023-06-24T07:39:00;100742.00;;;23.60
22322;BMP180;11328;53.928;18.522;2023-06-24T07:41:27;100744.00;;;23.70
22322;BMP180;11328;53.928;18.522;2023-06-24T07:43:54;100561.00;;;23.90
22322;BMP180;11328;53.928;18.522;2023-06-24T07:46:21;100737.00;;;24.10
22322;BMP180;11328;53.928;18.522;2023-06-24T07:48:49;100737.00;;;24.10
22322;BMP180;11328;53.928;18.522;2023-06-24T07:51:16;100741.00;;;24.00
22322;BMP180;11328;53.928;18.522;2023-06-24T07:53:45;100744.00;;;23.90
22322;BMP180;11328;53.928;18.522;2023-06-24T07:56:12;100730.00;;;24.00
22322;BMP180;11328;53.928;18.522;2023-06-24T07:58:39;100743.00;;;24.20
22322;BMP180;11328;53.928;18.522;2023-06-24T08:01:06;100743.00;;;24.50
22322;BMP180;11328;53.928;18.522;2023-06-24T08:03:34;100746.00;;;24.80
22322;BMP180;11328;53.928;18.522;2023-06-24T08:06:04;100749.00;;;25.10
22322;BMP180;11328;53.928;18.522;2023-06-24T08:08:31;100744.00;;;25.10
22322;BMP180;11328;53.928;18.522;2023-06-24T08:10:58;100759.00;;;25.10
22322;BMP180;11328;53.928;18.522;2023-06-24T08:13:25;100753.00;;;25.30
22322;BMP180;11328;53.928;18.522;2023-06-24T08:15:52;100753.00;;;25.30
22322;BMP180;11328;53.928;18.522;2023-06-24T08:18:19;100749.00;;;25.80
22322;BMP180;11328;53.928;18.522;2023-06-24T08:20:46;100741.00;;;26.20
22322;BMP180;11328;53.928;18.522;2023-06-24T08:23:14;100760.00;;;26.80
22322;BMP180;11328;53.928;18.522;2023-06-24T08:25:41;100753.00;;;26.70
22322;BMP180;11328;53.928;18.522;2023-06-24T08:28:08;100761.00;;;26.70
22322;BMP180;11328;53.928;18.522;2023-06-24T08:30:36;100736.00;;;26.90
22322;BMP180;11328;53.928;18.522;2023-06-24T08:33:03;100758.00;;;27.20
22322;BMP180;11328;53.928;18.522;2023-06-24T08:35:30;100747.00;;;27.50
22322;BMP180;11328;53.928;18.522;2023-06-24T08:37:57;100748.00;;;28.10
22322;BMP180;11328;53.928;18.522;2023-06-24T08:40:27;100746.00;;;28.70
22322;BMP180;11328;53.928;18.522;2023-06-24T08:42:55;100706.00;;;28.60
22322;BMP180;11328;53.928;18.522;2023-06-24T08:45:23;100754.00;;;28.70
22322;BMP180;11328;53.928;18.522;2023-06-24T08:47:52;100763.00;;;28.90
22322;BMP180;11328;53.928;18.522;2023-06-24T08:50:23;100743.00;;;28.50
22322;BMP180;11328;53.928;18.522;2023-06-24T08:52:52;100740.00;;;28.40
22322;BMP180;11328;53.928;18.522;2023-06-24T08:55:23;100747.00;;;28.80
22322;BMP180;11328;53.928;18.522;2023-06-24T08:57:51;100724.00;;;29.10
22322;BMP180;11328;53.928;18.522;2023-06-24T09:00:18;100740.00;;;29.10
22322;BMP180;11328;53.928;18.522;2023-06-24T09:02:47;100747.00;;;29.00
22322;BMP180;11328;53.928;18.522;2023-06-24T09:05:15;100750.00;;;28.90
22322;BMP180;11328;53.928;18.522;2023-06-24T09:07:42;100750.00;;;29.20
22322;BMP180;11328;53.928;18.522;2023-06-24T09:10:09;100756.00;;;29.30
22322;BMP180;11328;53.928;18.522;2023-06-24T09:12:36;100758.00;;;29.10
22322;BMP180;11328;53.928;18.522;2023-06-24T09:15:04;100751.00;;;29.40
22322;BMP180;11328;53.928;18.522;2023-06-24T09:17:32;100749.00;;;29.40
22322;BMP180;11328;53.928;18.522;2023-06-24T09:20:07;100745.00;;;29.50
22322;BMP180;11328;53.928;18.522;2023-06-24T09:22:41;100746.00;;;29.70
22322;BMP180;11328;53.928;18.522;2023-06-24T09:25:08;100759.00;;;29.60
22322;BMP180;11328;53.928;18.522;2023-06-24T09:27:36;100753.00;;;29.80
22322;BMP180;11328;53.928;18.522;2023-06-24T09:30:21;100757.00;;;29.60
22322;BMP180;11328;53.928;18.522;2023-06-24T09:32:53;100764.00;;;29.70
22322;BMP180;11328;53.928;18.522;2023-06-24T09:35:25;100780.00;;;29.60
22322;BMP180;11328;53.928;18.522;2023-06-24T09:37:55;100783.00;;;29.10
22322;BMP180;11328;53.928;18.522;2023-06-24T09:40:23;100784.00;;;29.20
22322;BMP180;11328;53.928;18.522;2023-06-24T09:42:58;100780.00;;;29.10
22322;BMP180;11328;53.928;18.522;2023-06-24T09:45:29;100792.00;;;29.30
22322;BMP180;11328;53.928;18.522;2023-06-24T09:47:57;100797.00;;;29.50
22322;BMP180;11328;53.928;18.522;2023-06-24T09:50:25;100784.00;;;29.60
22322;BMP180;11328;53.928;18.522;2023-06-24T09:52:53;100770.00;;;29.80
22322;BMP180;11328;53.928;18.522;2023-06-24T09:55:21;100780.00;;;30.20
22322;BMP180;11328;53.928;18.522;2023-06-24T09:57:53;100769.00;;;30.20
22322;BMP180;11328;53.928;18.522;2023-06-24T10:00:21;100783.00;;;30.00
22322;BMP180;11328;53.928;18.522;2023-06-24T10:02:52;100746.00;;;30.30
22322;BMP180;11328;53.928;18.522;2023-06-24T10:05:20;100774.00;;;30.50
22322;BMP180;11328;53.928;18.522;2023-06-24T10:07:48;100774.00;;;30.40
22322;BMP180;11328;53.928;18.522;2023-06-24T10:10:16;100775.00;;;30.20
22322;BMP180;11328;53.928;18.522;2023-06-24T10:12:43;100775.00;;;29.90
22322;BMP180;11328;53.928;18.522;2023-06-24T10:15:11;100796.00;;;29.70
22322;BMP180;11328;53.928;18.522;2023-06-24T10:17:38;100796.00;;;29.40
22322;BMP180;11328;53.928;18.522;2023-06-24T10:20:07;100779.00;;;29.00
22322;BMP180;11328;53.928;18.522;2023-06-24T10:22:35;100762.00;;;29.10
22322;BMP180;11328;53.928;18.522;2023-06-24T10:25:06;100791.00;;;29.10
22322;BMP180;11328;53.928;18.522;2023-06-24T10:27:42;100781.00;;;29.10
22322;BMP180;11328;53.928;18.522;2023-06-24T10:30:18;100771.00;;;29.20
22322;BMP180;11328;53.928;18.522;2023-06-24T10:32:54;100776.00;;;29.90
22322;BMP180;11328;53.928;18.522;2023-06-24T10:35:27;100788.00;;;30.60
22322;BMP180;11328;53.928;18.522;2023-06-24T10:38:01;100793.00;;;30.30
22322;BMP180;11328;53.928;18.522;2023-06-24T10:40:40;100795.00;;;30.70
22322;BMP180;11328;53.928;18.522;2023-06-24T10:43:27;100788.00;;;30.90
22322;BMP180;11328;53.928;18.522;2023-06-24T10:45:58;100791.00;;;30.80
22322;BMP180;11328;53.928;18.522;2023-06-24T10:48:26;100774.00;;;30.50
22322;BMP180;11328;53.928;18.522;2023-06-24T10:50:53;100775.00;;;30.90
22322;BMP180;11328;53.928;18.522;2023-06-24T10:53:22;100783.00;;;31.50
22322;BMP180;11328;53.928;18.522;2023-06-24T10:55:49;100774.00;;;31.70
22322;BMP180;11328;53.928;18.522;2023-06-24T10:58:16;100781.00;;;31.60
22322;BMP180;11328;53.928;18.522;2023-06-24T11:00:44;100775.00;;;31.60
22322;BMP180;11328;53.928;18.522;2023-06-24T11:03:15;100778.00;;;31.20
22322;BMP180;11328;53.928;18.522;2023-06-24T11:05:45;100777.00;;;31.50
22322;BMP180;11328;53.928;18.522;2023-06-24T11:08:13;100786.00;;;31.50
22322;BMP180;11328;53.928;18.522;2023-06-24T11:10:48;100784.00;;;31.60
22322;BMP180;11328;53.928;18.522;2023-06-24T11:13:20;100777.00;;;31.50
22322;BMP180;11328;53.928;18.522;2023-06-24T11:15:47;100784.00;;;31.40
22322;BMP180;11328;53.928;18.522;2023-06-24T11:18:16;100797.00;;;31.50
22322;BMP180;11328;53.928;18.522;2023-06-24T11:20:43;100787.00;;;31.60
22322;BMP180;11328;53.928;18.522;2023-06-24T11:23:10;100780.00;;;31.90
22322;BMP180;11328;53.928;18.522;2023-06-24T11:25:43;100779.00;;;32.20
22322;BMP180;11328;53.928;18.522;2023-06-24T11:28:17;100778.00;;;32.20
22322;BMP180;11328;53.928;18.522;2023-06-24T11:30:49;100777.00;;;31.80
22322;BMP180;11328;53.928;18.522;2023-06-24T11:33:29;100783.00;;;31.60
22322;BMP180;11328;53.928;18.522;2023-06-24T11:35:56;100780.00;;;31.60
22322;BMP180;11328;53.928;18.522;2023-06-24T11:38:24;100786.00;;;31.60
22322;BMP180;11328;53.928;18.522;2023-06-24T11:40:59;100785.00;;;31.40
22322;BMP180;11328;53.928;18.522;2023-06-24T11:43:26;100780.00;;;31.80
22322;BMP180;11328;53.928;18.522;2023-06-24T11:45:54;100778.00;;;31.40
22322;BMP180;11328;53.928;18.522;2023-06-24T11:48:21;100773.00;;;31.60
22322;BMP180;11328;53.928;18.522;2023-06-24T11:50:55;100788.00;;;32.20
22322;BMP180;11328;53.928;18.522;2023-06-24T11:53:42;100778.00;;;32.40
22322;BMP180;11328;53.928;18.522;2023-06-24T11:56:13;100779.00;;;32.50
22322;BMP180;11328;53.928;18.522;2023-06-24T11:58:42;100773.00;;;32.40
22322;BMP180;11328;53.928;18.522;2023-06-24T12:01:10;100783.00;;;32.00
22322;BMP180;11328;53.928;18.522;2023-06-24T12:03:37;100775.00;;;32.00
22322;BMP180;11328;53.928;18.522;2023-06-24T12:06:04;100774.00;;;32.30
22322;BMP180;11328;53.928;18.522;2023-06-24T12:08:31;100763.00;;;32.40
22322;BMP180;11328;53.928;18.522;2023-06-24T12:11:17;100765.00;;;32.20
22322;BMP180;11328;53.928;18.522;2023-06-24T12:13:44;100764.00;;;32.00
22322;BMP180;11328;53.928;18.522;2023-06-24T12:16:11;100775.00;;;31.80
22322;BMP180;11328;53.928;18.522;2023-06-24T12:18:39;100769.00;;;31.70
22322;BMP180;11328;53.928;18.522;2023-06-24T12:21:06;100775.00;;;31.80
22322;BMP180;11328;53.928;18.522;2023-06-24T12:23:33;100780.00;;;31.60
22322;BMP180;11328;53.928;18.522;2023-06-24T12:26:00;100774.00;;;31.70
22322;BMP180;11328;53.928;18.522;2023-06-24T12:28:28;100777.00;;;31.50
22322;BMP180;11328;53.928;18.522;2023-06-24T12:30:55;100781.00;;;31.60
22322;BMP180;11328;53.928;18.522;2023-06-24T12:33:22;100786.00;;;31.50
22322;BMP180;11328;53.928;18.522;2023-06-24T12:35:49;100788.00;;;30.90
22322;BMP180;11328;53.928;18.522;2023-06-24T12:38:16;100783.00;;;30.80
22322;BMP180;11328;53.928;18.522;2023-06-24T12:40:44;100794.00;;;30.60
22322;BMP180;11328;53.928;18.522;2023-06-24T12:43:12;100796.00;;;30.40
22322;BMP180;11328;53.928;18.522;2023-06-24T12:45:40;100794.00;;;30.40
22322;BMP180;11328;53.928;18.522;2023-06-24T12:48:07;100796.00;;;30.40
22322;BMP180;11328;53.928;18.522;2023-06-24T12:50:34;100796.00;;;30.30
22322;BMP180;11328;53.928;18.522;2023-06-24T12:53:02;100798.00;;;30.20
22322;BMP180;11328;53.928;18.522;2023-06-24T12:55:30;100788.00;;;30.20
22322;BMP180;11328;53.928;18.522;2023-06-24T12:57:57;100795.00;;;30.20
22322;BMP180;11328;53.928;18.522;2023-06-24T13:00:25;100811.00;;;30.30
22322;BMP180;11328;53.928;18.522;2023-06-24T13:02:52;100756.00;;;30.60
22322;BMP180;11328;53.928;18.522;2023-06-24T13:05:19;100806.00;;;31.10
22322;BMP180;11328;53.928;18.522;2023-06-24T13:07:47;100789.00;;;31.30
22322;BMP180;11328;53.928;18.522;2023-06-24T13:10:14;100802.00;;;31.20
22322;BMP180;11328;53.928;18.522;2023-06-24T13:12:41;100797.00;;;30.80
22322;BMP180;11328;53.928;18.522;2023-06-24T13:15:09;100797.00;;;30.20
22322;BMP180;11328;53.928;18.522;2023-06-24T13:17:37;100797.00;;;30.00
22322;BMP180;11328;53.928;18.522;2023-06-24T13:20:06;100799.00;;;30.20
22322;BMP180;11328;53.928;18.522;2023-06-24T13:22:33;100786.00;;;30.10
22322;BMP180;11328;53.928;18.522;2023-06-24T13:25:00;100802.00;;;30.20
22322;BMP180;11328;53.928;18.522;2023-06-24T13:27:28;100804.00;;;30.30
22322;BMP180;11328;53.928;18.522;2023-06-24T13:29:55;100797.00;;;30.30
22322;BMP180;11328;53.928;18.522;2023-06-24T13:32:22;100805.00;;;30.20
22322;BMP180;11328;53.928;18.522;2023-06-24T13:34:50;100802.00;;;30.40
22322;BMP180;11328;53.928;18.522;2023-06-24T13:37:17;100803.00;;;30.30
22322;BMP180;11328;53.928;18.522;2023-06-24T13:39:45;100812.00;;;30.50
22322;BMP180;11328;53.928;18.522;2023-06-24T13:42:13;100810.00;;;30.30
22322;BMP180;11328;53.928;18.522;2023-06-24T13:44:40;100814.00;;;30.70
22322;BMP180;11328;53.928;18.522;2023-06-24T13:47:08;100804.00;;;30.90
22322;BMP180;11328;53.928;18.522;2023-06-24T13:49:35;100790.00;;;30.70
22322;BMP180;11328;53.928;18.522;2023-06-24T13:52:02;100801.00;;;30.70
22322;BMP180;11328;53.928;18.522;2023-06-24T13:54:30;100809.00;;;30.80
22322;BMP180;11328;53.928;18.522;2023-06-24T13:56:59;100814.00;;;30.80